Time;durP1;ratioP1;P1;durP2;ratioP2;P2;SDS_P1;SDS_P2;PMS_P1;PMS_P2;Temp;Humidity;BMP_temperature;BMP_pressure;BME280_temperature;BME280_humidity;BME280_pressure;Samples;Min_cycle;Max_cycle;Signal;HPM_P1;HPM_P2
2021/04/14 00:00:26;;;;;;;4.10;2.70;;;3.10;99.90;;;;;;6245649;23;20148;-80
2021/04/14 00:02:53;;;;;;;5.70;2.20;;;3.00;99.90;;;;;;6220033;23;20599;-78
2021/04/14 00:05:21;;;;;;;4.53;2.60;;;3.00;99.90;;;;;;6245040;23;20153;-79
2021/04/14 00:07:47;;;;;;;5.45;2.50;;;2.90;99.90;;;;;;6245155;23;20144;-78
2021/04/14 00:10:14;;;;;;;3.55;2.60;;;2.90;99.90;;;;;;6247576;23;20152;-79
2021/04/14 00:12:40;;;;;;;3.92;2.67;;;2.80;99.90;;;;;;6247585;23;20172;-77
2021/04/14 00:15:14;;;;;;;6.80;2.60;;;2.70;99.90;;;;;;6246921;23;20173;-77
2021/04/14 00:17:40;;;;;;;3.92;2.63;;;2.70;99.90;;;;;;6247592;23;20158;-78
2021/04/14 00:20:09;;;;;;;3.60;2.60;;;2.70;99.90;;;;;;6220543;23;20160;-79
2021/04/14 00:22:34;;;;;;;4.18;3.05;;;2.50;99.90;;;;;;6247261;23;20496;-79
2021/04/14 00:25:00;;;;;;;5.13;2.87;;;2.40;99.90;;;;;;6247400;23;20152;-80
2021/04/14 00:27:25;;;;;;;5.97;3.10;;;2.30;99.90;;;;;;6247202;23;20182;-78
2021/04/14 00:29:51;;;;;;;7.80;2.80;;;2.20;99.90;;;;;;6247432;23;20158;-78
2021/04/14 00:32:17;;;;;;;3.07;2.30;;;2.20;99.90;;;;;;6247604;23;20151;-79
2021/04/14 00:34:42;;;;;;;4.40;2.80;;;2.10;99.90;;;;;;6246990;23;20338;-79
2021/04/14 00:37:08;;;;;;;11.43;3.03;;;2.00;99.90;;;;;;6220444;23;20311;-79
2021/04/14 00:39:33;;;;;;;6.33;2.53;;;2.00;99.90;;;;;;6247407;23;20149;-79
2021/04/14 00:41:59;;;;;;;6.70;2.97;;;1.90;99.90;;;;;;6246746;23;20155;-79
2021/04/14 00:44:25;;;;;;;3.93;1.93;;;1.90;99.90;;;;;;6247317;23;20145;-79
2021/04/14 00:46:51;;;;;;;4.67;2.93;;;1.90;99.90;;;;;;6220165;23;20406;-78
2021/04/14 00:49:16;;;;;;;5.80;2.70;;;1.80;99.90;;;;;;6247018;23;20172;-79
2021/04/14 00:51:42;;;;;;;3.53;2.20;;;1.70;99.90;;;;;;6247247;23;20147;-78
2021/04/14 00:54:09;;;;;;;5.35;2.83;;;1.70;99.90;;;;;;6247214;23;20587;-79
2021/04/14 00:56:35;;;;;;;4.20;2.40;;;1.60;99.90;;;;;;6246522;23;20642;-79
2021/04/14 00:59:00;;;;;;;3.93;2.90;;;1.60;99.90;;;;;;6247046;23;20149;-80
2021/04/14 01:01:26;;;;;;;4.90;2.30;;;1.50;99.90;;;;;;6246913;23;20157;-79
2021/04/14 01:03:55;;;;;;;2.85;2.55;;;1.40;99.90;;;;;;6247299;23;20151;-79
2021/04/14 01:06:24;;;;;;;4.20;2.35;;;1.40;99.90;;;;;;6246727;23;20538;-78
2021/04/14 01:08:50;;;;;;;6.15;2.80;;;1.40;99.90;;;;;;6247255;23;20500;-79
2021/04/14 01:11:17;;;;;;;4.30;2.83;;;1.30;99.90;;;;;;6246853;23;20162;-78
2021/04/14 01:13:44;;;;;;;2.90;2.20;;;1.20;99.90;;;;;;6246242;23;20392;-78
2021/04/14 01:16:09;;;;;;;7.78;2.33;;;1.20;99.90;;;;;;6246559;23;20182;-78
2021/04/14 01:18:38;;;;;;;5.40;2.73;;;1.10;99.90;;;;;;6220124;23;20149;-79
2021/04/14 01:21:07;;;;;;;3.58;2.72;;;1.10;99.90;;;;;;6220039;23;20568;-78
2021/04/14 01:23:32;;;;;;;4.25;2.60;;;1.10;99.90;;;;;;6220090;23;20238;-78
2021/04/14 01:25:59;;;;;;;9.30;3.23;;;1.10;99.90;;;;;;6219871;23;20198;-79
2021/04/14 01:28:33;;;;;;;4.85;3.22;;;1.10;99.90;;;;;;6246837;23;20846;-79
2021/04/14 01:30:59;;;;;;;6.80;3.67;;;1.00;99.90;;;;;;6246940;23;20137;-79
2021/04/14 01:33:29;;;;;;;4.30;3.30;;;1.00;99.90;;;;;;6194957;23;20157;-80
2021/04/14 01:35:55;;;;;;;3.85;2.90;;;1.00;99.90;;;;;;6246886;23;20179;-78
2021/04/14 01:38:21;;;;;;;7.30;3.00;;;1.00;99.90;;;;;;6246860;23;20566;-78
2021/04/14 01:40:47;;;;;;;6.83;3.67;;;0.90;99.90;;;;;;6247087;23;20155;-77
2021/04/14 01:43:12;;;;;;;5.73;2.30;;;0.90;99.90;;;;;;6246887;23;20146;-79
2021/04/14 01:45:40;;;;;;;6.57;3.37;;;0.90;99.90;;;;;;6218717;23;20662;-79
2021/04/14 01:48:07;;;;;;;4.00;2.65;;;0.80;99.90;;;;;;6246554;23;20158;-77
2021/04/14 01:50:34;;;;;;;4.40;2.65;;;0.80;99.90;;;;;;6220161;23;20149;-78
2021/04/14 01:53:00;;;;;;;3.78;2.55;;;0.90;99.90;;;;;;6246792;23;20157;-79
2021/04/14 01:55:27;;;;;;;5.75;2.78;;;0.90;99.90;;;;;;6246115;23;20165;-80
2021/04/14 01:57:53;;;;;;;6.03;3.40;;;0.90;99.90;;;;;;6246570;23;20150;-78
2021/04/14 02:00:24;;;;;;;9.47;3.70;;;0.90;99.90;;;;;;6219994;23;20411;-79
2021/04/14 02:02:50;;;;;;;4.90;3.20;;;0.90;99.90;;;;;;6246929;23;20370;-79
2021/04/14 02:05:17;;;;;;;5.63;2.50;;;0.90;99.90;;;;;;6246053;23;20323;-78
2021/04/14 02:07:43;;;;;;;3.13;2.78;;;0.90;99.90;;;;;;6246411;23;20145;-79
2021/04/14 02:10:12;;;;;;;4.27;3.27;;;1.00;99.90;;;;;;6245356;23;20617;-79
2021/04/14 02:12:38;;;;;;;5.00;3.30;;;1.00;99.90;;;;;;6245887;23;20541;-79
2021/04/14 02:15:10;;;;;;;4.27;2.70;;;1.00;99.90;;;;;;6246141;23;20176;-78
2021/04/14 02:17:35;;;;;;;5.25;2.58;;;0.90;99.90;;;;;;6246285;23;20443;-78
2021/04/14 02:20:01;;;;;;;6.30;2.80;;;0.80;99.90;;;;;;6246063;23;20149;-79
2021/04/14 02:22:27;;;;;;;4.60;2.57;;;0.80;99.90;;;;;;6246311;23;20145;-79
2021/04/14 02:24:52;;;;;;;7.63;3.00;;;0.70;99.90;;;;;;6219398;23;20149;-78
2021/04/14 02:27:18;;;;;;;3.27;2.80;;;0.70;99.90;;;;;;6246180;23;20170;-78
2021/04/14 02:29:45;;;;;;;4.77;2.50;;;0.60;99.90;;;;;;6219725;23;20179;-78
2021/04/14 02:32:10;;;;;;;4.05;3.33;;;0.60;99.90;;;;;;6246299;23;20501;-79
2021/04/14 02:34:36;;;;;;;4.27;2.83;;;0.50;99.90;;;;;;6245814;23;20209;-78
2021/04/14 02:37:02;;;;;;;7.50;2.97;;;0.50;99.90;;;;;;6246355;23;20260;-78
2021/04/14 02:39:28;;;;;;;5.13;3.00;;;0.50;99.90;;;;;;6246667;23;20146;-79
2021/04/14 02:41:53;;;;;;;8.57;3.72;;;0.60;99.90;;;;;;6219150;23;20175;-79
2021/04/14 02:44:19;;;;;;;4.63;3.40;;;0.50;99.90;;;;;;6245437;23;20189;-79
2021/04/14 02:46:45;;;;;;;9.63;2.65;;;0.50;99.90;;;;;;6245623;23;20172;-79
2021/04/14 02:49:11;;;;;;;6.83;3.40;;;0.50;99.90;;;;;;6246064;23;20172;-79
2021/04/14 02:51:36;;;;;;;5.00;3.80;;;0.50;99.90;;;;;;6246291;23;20153;-78
2021/04/14 02:54:02;;;;;;;5.10;2.87;;;0.50;99.90;;;;;;6246109;23;20152;-78
2021/04/14 02:56:28;;;;;;;4.50;2.70;;;0.60;99.90;;;;;;6245765;23;20176;-78
2021/04/14 02:58:54;;;;;;;6.57;3.37;;;0.60;99.90;;;;;;6246110;23;20145;-79
2021/04/14 03:01:19;;;;;;;5.37;3.37;;;0.40;99.90;;;;;;6246029;23;20149;-78
2021/04/14 03:03:45;;;;;;;5.07;3.03;;;0.40;99.90;;;;;;6246060;23;20145;-79
2021/04/14 03:06:11;;;;;;;6.60;3.07;;;0.30;99.90;;;;;;6245399;23;20176;-78
2021/04/14 03:08:37;;;;;;;5.88;3.20;;;0.30;99.90;;;;;;6246063;23;20272;-78
2021/04/14 03:11:03;;;;;;;7.00;3.17;;;0.30;99.90;;;;;;6246036;23;20600;-80
2021/04/14 03:13:29;;;;;;;4.87;3.13;;;0.30;99.90;;;;;;6245883;23;20372;-78
2021/04/14 03:15:54;;;;;;;9.93;3.20;;;0.20;99.90;;;;;;6244704;23;20228;-80
2021/04/14 03:18:20;;;;;;;5.83;2.60;;;0.20;99.90;;;;;;6193948;23;20160;-80
2021/04/14 03:20:46;;;;;;;6.63;3.30;;;0.10;99.90;;;;;;6219553;23;20145;-78
2021/04/14 03:23:16;;;;;;;5.18;2.78;;;0.10;99.90;;;;;;6246037;23;20363;-79
2021/04/14 03:25:42;;;;;;;6.63;2.95;;;0.20;99.90;;;;;;6245401;23;20620;-78
2021/04/14 03:28:08;;;;;;;6.63;2.47;;;0.20;99.90;;;;;;6245998;23;20474;-78
2021/04/14 03:30:34;;;;;;;5.23;3.20;;;0.20;99.90;;;;;;6219221;23;20173;-80
2021/04/14 03:32:59;;;;;;;3.50;2.50;;;0.10;99.90;;;;;;6245858;23;20430;-79
2021/04/14 03:35:27;;;;;;;4.37;2.20;;;0.10;99.90;;;;;;6245357;23;20226;-79
2021/04/14 03:37:53;;;;;;;3.42;2.45;;;0.10;99.90;;;;;;6219371;23;20169;-79
2021/04/14 03:40:19;;;;;;;4.50;3.10;;;0.10;99.90;;;;;;6219100;23;20585;-80
2021/04/14 03:42:45;;;;;;;5.60;3.10;;;0.10;99.90;;;;;;6246933;23;20145;-78
2021/04/14 03:45:16;;;;;;;5.70;2.83;;;0.10;99.90;;;;;;6247746;23;20147;-79
2021/04/14 03:47:42;;;;;;;11.90;3.20;;;0.10;99.90;;;;;;6247823;23;20140;-79
2021/04/14 03:50:11;;;;;;;4.72;2.95;;;0.10;99.90;;;;;;6247391;23;20217;-79
2021/04/14 03:52:37;;;;;;;6.43;3.42;;;0.10;99.90;;;;;;6247927;23;20145;-79
2021/04/14 03:55:05;;;;;;;6.00;3.40;;;0.10;99.90;;;;;;6247449;23;20152;-79
2021/04/14 03:57:30;;;;;;;7.55;3.13;;;0.10;99.90;;;;;;6247779;23;20176;-79
2021/04/14 03:59:56;;;;;;;5.97;3.20;;;0.10;99.90;;;;;;6195946;23;20157;-78
2021/04/14 04:02:22;;;;;;;6.23;3.43;;;0.10;99.90;;;;;;6247733;23;20152;-80
2021/04/14 04:04:47;;;;;;;3.67;2.80;;;0.10;99.90;;;;;;6247204;23;20194;-79
2021/04/14 04:07:13;;;;;;;8.13;3.50;;;0.20;99.90;;;;;;6220860;23;20247;-77
2021/04/14 04:09:38;;;;;;;7.23;3.50;;;0.10;99.90;;;;;;6247787;23;20156;-77
2021/04/14 04:12:08;;;;;;;5.70;3.90;;;0.10;99.90;;;;;;6247611;23;20226;-78
2021/04/14 04:14:34;;;;;;;8.27;3.47;;;0.10;99.90;;;;;;6220140;23;20164;-77
2021/04/14 04:17:00;;;;;;;13.57;4.10;;;0.20;99.90;;;;;;6247341;23;20184;-79
2021/04/14 04:19:26;;;;;;;11.90;4.67;;;0.20;99.90;;;;;;6247619;23;20150;-77
2021/04/14 04:21:51;;;;;;;5.10;3.57;;;0.20;99.90;;;;;;6219799;23;20188;-78
2021/04/14 04:24:17;;;;;;;6.17;3.70;;;0.30;99.90;;;;;;6220878;23;20367;-78
2021/04/14 04:26:43;;;;;;;5.77;2.97;;;0.30;99.90;;;;;;6246866;23;20559;-78
2021/04/14 04:29:09;;;;;;;9.05;3.80;;;0.40;99.90;;;;;;6247342;23;20454;-79
2021/04/14 04:31:34;;;;;;;4.43;3.10;;;0.40;99.90;;;;;;6247506;23;20486;-77
2021/04/14 04:34:00;;;;;;;5.57;3.73;;;0.50;99.90;;;;;;6247494;23;20156;-77
2021/04/14 04:36:25;;;;;;;8.50;4.10;;;0.50;99.90;;;;;;6219964;23;20184;-77
2021/04/14 04:38:51;;;;;;;7.80;3.40;;;0.50;99.90;;;;;;6220331;23;20149;-77
2021/04/14 04:41:17;;;;;;;6.35;3.38;;;0.50;99.90;;;;;;6247301;23;20146;-77
2021/04/14 04:43:43;;;;;;;5.23;3.33;;;0.60;99.90;;;;;;6220589;23;20145;-78
2021/04/14 04:46:09;;;;;;;5.80;3.53;;;0.60;99.90;;;;;;6246893;23;20177;-78
2021/04/14 04:48:35;;;;;;;6.10;3.33;;;0.70;99.90;;;;;;6247160;23;20489;-77
2021/04/14 04:51:01;;;;;;;4.77;3.50;;;0.70;99.90;;;;;;6247165;23;20663;-78
2021/04/14 04:53:26;;;;;;;8.13;3.63;;;0.70;99.90;;;;;;6219555;23;20150;-78
2021/04/14 04:55:53;;;;;;;9.53;3.83;;;0.80;99.90;;;;;;6246703;23;20178;-78
2021/04/14 04:58:20;;;;;;;6.20;3.22;;;0.80;99.90;;;;;;6220146;23;20593;-77
2021/04/14 05:00:47;;;;;;;5.38;4.05;;;0.90;99.90;;;;;;6247249;23;20150;-78
2021/04/14 05:03:15;;;;;;;5.25;3.33;;;1.00;99.90;;;;;;6246747;23;20220;-78
2021/04/14 05:05:42;;;;;;;7.72;3.92;;;1.00;99.90;;;;;;6246075;23;20182;-78
2021/04/14 05:08:09;;;;;;;8.13;4.35;;;1.10;99.90;;;;;;6220433;23;20152;-78
2021/04/14 05:10:35;;;;;;;7.93;3.85;;;1.10;99.90;;;;;;6247017;23;20158;-78
2021/04/14 05:13:02;;;;;;;7.90;4.18;;;1.10;99.90;;;;;;6219778;23;20587;-78
2021/04/14 05:15:31;;;;;;;13.07;4.38;;;1.10;99.90;;;;;;6246201;23;20468;-78
2021/04/14 05:17:58;;;;;;;8.55;3.90;;;1.10;99.90;;;;;;6246958;23;20141;-78
2021/04/14 05:20:24;;;;;;;6.88;3.88;;;1.20;99.90;;;;;;6220095;23;20490;-78
2021/04/14 05:22:50;;;;;;;7.97;5.70;;;1.20;99.90;;;;;;6246927;23;20142;-78
2021/04/14 05:25:20;;;;;;;7.33;5.47;;;1.30;99.90;;;;;;6245594;23;20370;-79
2021/04/14 05:27:47;;;;;;;7.60;4.55;;;1.40;99.90;;;;;;6246962;23;20366;-78
2021/04/14 05:30:14;;;;;;;11.13;5.20;;;1.40;99.90;;;;;;6247092;23;20155;-78
2021/04/14 05:32:40;;;;;;;12.43;5.20;;;1.50;99.90;;;;;;6246841;23;20461;-78
2021/04/14 05:35:08;;;;;;;12.13;4.90;;;1.60;99.90;;;;;;6245977;23;20156;-79
2021/04/14 05:37:33;;;;;;;6.60;3.90;;;1.70;99.90;;;;;;6246524;23;20178;-78
2021/04/14 05:39:59;;;;;;;8.07;5.10;;;1.70;99.90;;;;;;6246871;23;20271;-78
2021/04/14 05:42:25;;;;;;;8.10;4.97;;;1.80;99.90;;;;;;6246886;23;20149;-78
2021/04/14 05:44:51;;;;;;;7.03;5.00;;;1.80;99.90;;;;;;6219535;23;20167;-77
2021/04/14 05:47:16;;;;;;;8.73;4.53;;;1.90;99.90;;;;;;6246506;23;20495;-78
2021/04/14 05:49:42;;;;;;;10.33;5.20;;;1.90;99.90;;;;;;6246852;23;20524;-77
2021/04/14 05:52:08;;;;;;;7.40;4.37;;;2.10;99.90;;;;;;6194675;23;20304;-81
2021/04/14 05:54:33;;;;;;;7.87;4.60;;;2.00;99.90;;;;;;6219381;23;20536;-79
2021/04/14 05:56:59;;;;;;;10.70;4.40;;;2.10;99.90;;;;;;6246016;23;20188;-82
2021/04/14 05:59:25;;;;;;;7.67;4.60;;;2.10;99.90;;;;;;6219855;23;20471;-84
2021/04/14 06:01:57;;;;;;;9.18;4.57;;;2.20;99.90;;;;;;6170117;23;20184;-83
2021/04/14 06:04:31;;;;;;;6.60;4.43;;;2.10;99.90;;;;;;6220144;23;20179;-83
2021/04/14 06:06:57;;;;;;;9.70;5.40;;;2.20;99.90;;;;;;6194903;23;20180;-77
2021/04/14 06:13:45;;;;;;;12.93;4.80;;;2.50;99.90;;;;;;6193632;23;20160;-84
2021/04/14 06:19:37;;;;;;;7.40;5.15;;;2.70;99.90;;;;;;6205279;22;20179;-80
2021/04/14 06:22:05;;;;;;;6.27;3.90;;;2.60;99.90;;;;;;6189443;23;20158;-78
2021/04/14 06:24:30;;;;;;;8.60;4.90;;;2.60;99.90;;;;;;6215658;23;20144;-78
2021/04/14 06:27:05;;;;;;;6.77;4.90;;;2.90;99.90;;;;;;6214496;23;20180;-77
2021/04/14 06:29:34;;;;;;;7.25;4.75;;;3.10;99.90;;;;;;6213228;23;20388;-83
2021/04/14 06:31:59;;;;;;;10.40;4.30;;;3.30;99.90;;;;;;6189338;23;20244;-80
2021/04/14 06:34:27;;;;;;;8.87;5.20;;;3.50;99.90;;;;;;6215744;23;20193;-81
2021/04/14 06:36:56;;;;;;;5.45;4.63;;;3.60;99.90;;;;;;6215523;23;20273;-79
2021/04/14 06:39:26;;;;;;;8.35;4.15;;;3.80;99.90;;;;;;6215747;23;20149;-80
2021/04/14 06:42:19;;;;;;;6.60;4.93;;;3.90;99.90;;;;;;6214686;23;20505;-79
2021/04/14 06:44:51;;;;;;;6.53;5.18;;;3.90;99.90;;;;;;6215648;23;20129;-79
2021/04/14 06:47:24;;;;;;;7.18;4.65;;;3.90;99.90;;;;;;6215966;23;20166;-81
2021/04/14 06:50:06;;;;;;;7.72;5.03;;;4.00;99.90;;;;;;6214489;23;20164;-82
2021/04/14 06:52:39;;;;;;;6.72;4.90;;;3.80;99.90;;;;;;6215884;23;20145;-78
2021/04/14 06:57:59;;;;;;;9.48;5.00;;;3.80;99.90;;;;;;6215561;22;20197;-79
2021/04/14 07:00:42;;;;;;;7.57;4.90;;;3.90;99.90;;;;;;6213354;23;20513;-79
2021/04/14 07:03:28;;;;;;;7.38;3.97;;;4.10;99.90;;;;;;6215766;23;20134;-80
2021/04/14 07:06:07;;;;;;;8.13;4.72;;;4.10;99.90;;;;;;6215024;23;20215;-81
2021/04/14 07:08:37;;;;;;;7.72;4.38;;;4.30;99.90;;;;;;6214584;23;20153;-81
2021/04/14 07:11:05;;;;;;;15.40;4.70;;;4.40;99.90;;;;;;6216126;23;20449;-83
2021/04/14 07:13:35;;;;;;;9.38;4.75;;;4.60;99.90;;;;;;6215917;23;20157;-80
2021/04/14 07:16:31;;;;;;;10.60;5.90;;;4.70;99.90;;;;;;6213880;23;20188;-80
2021/04/14 07:19:34;;;;;;;8.70;4.75;;;4.90;99.90;;;;;;6215703;23;20168;-80
2021/04/14 07:22:43;;;;;;;7.57;4.75;;;5.10;99.90;;;;;;6215567;23;20154;-80
2021/04/14 07:25:32;;;;;;;6.88;3.70;;;5.40;99.90;;;;;;6215309;23;20138;-81
2021/04/14 07:28:44;;;;;;;12.88;4.60;;;5.30;99.90;;;;;;6214077;23;20142;-81
2021/04/14 07:31:31;;;;;;;6.97;5.47;;;5.60;99.90;;;;;;6164586;23;20159;-84
2021/04/14 07:34:15;;;;;;;7.50;4.45;;;5.80;99.90;;;;;;6214997;23;20134;-81
2021/04/14 07:36:57;;;;;;;7.82;4.32;;;5.90;99.90;;;;;;6215535;22;20195;-83
2021/04/14 07:39:43;;;;;;;6.90;4.47;;;6.10;99.90;;;;;;6245922;23;20213;-82
2021/04/14 07:42:30;;;;;;;12.82;4.70;;;6.20;99.90;;;;;;6218877;23;20171;-82
2021/04/14 07:45:14;;;;;;;6.50;3.90;;;6.30;99.90;;;;;;6244663;23;20140;-77
2021/04/14 07:47:51;;;;;;;5.47;4.55;;;6.40;99.90;;;;;;6215414;23;20141;-78
2021/04/14 07:50:19;;;;;;;8.02;4.10;;;6.70;99.90;;;;;;6215070;23;20219;-78
2021/04/14 07:52:44;;;;;;;5.80;3.92;;;7.00;99.90;;;;;;6188888;23;20480;-78
2021/04/14 07:55:32;;;;;;;7.70;4.00;;;7.20;99.90;;;;;;6188285;23;20149;-85
2021/04/14 07:58:12;;;;;;;6.60;3.85;;;7.40;99.90;;;;;;6215278;23;20145;-78
2021/04/14 08:00:41;;;;;;;7.32;4.13;;;7.60;99.90;;;;;;6215465;23;20225;-82
2021/04/14 08:03:27;;;;;;;4.60;3.65;;;7.80;99.90;;;;;;6215089;23;20221;-77
2021/04/14 08:06:05;;;;;;;45.40;42.05;;;7.90;99.90;;;;;;6187228;23;20493;-77
2021/04/14 08:08:31;;;;;;;12.27;10.93;;;7.60;99.90;;;;;;6215104;23;20145;-78
2021/04/14 08:11:28;;;;;;;8.57;5.17;;;7.20;99.90;;;;;;6215413;23;20475;-77
2021/04/14 08:13:54;;;;;;;7.80;4.43;;;7.70;99.90;;;;;;6215300;23;20365;-84
2021/04/14 08:17:07;;;;;;;6.57;4.43;;;7.30;99.90;;;;;;6222957;22;20680;-80
2021/04/14 08:20:05;;;;;;;7.95;3.95;;;7.30;99.90;;;;;;6205324;23;20191;-83
2021/04/14 08:29:18;;;;;;;6.20;4.85;;;7.20;99.90;;;;;;6098822;23;20533;-79
2021/04/14 08:31:58;;;;;;;6.87;4.30;;;7.40;99.90;;;;;;6187063;23;20130;-78
2021/04/14 08:34:31;;;;;;;8.77;5.03;;;7.40;99.90;;;;;;6186901;23;20189;-80
2021/04/14 08:36:59;;;;;;;9.27;4.65;;;7.50;99.90;;;;;;6186430;23;20259;-80
2021/04/14 08:39:50;;;;;;;8.82;5.65;;;7.50;99.90;;;;;;6186926;23;20455;-80
2021/04/14 08:42:32;;;;;;;6.50;5.55;;;7.40;99.90;;;;;;6169795;23;20150;-78
2021/04/14 08:45:05;;;;;;;8.70;6.10;;;7.30;99.90;;;;;;6185285;23;20154;-77
2021/04/14 08:47:33;;;;;;;10.70;6.22;;;7.80;99.90;;;;;;6185639;23;20161;-80
2021/04/14 08:50:05;;;;;;;9.15;5.07;;;7.90;99.90;;;;;;6185040;23;20181;-81
2021/04/14 08:52:33;;;;;;;6.75;3.83;;;7.80;99.90;;;;;;6210198;23;20205;-81
2021/04/14 08:55:00;;;;;;;5.07;4.00;;;7.90;99.90;;;;;;6185144;23;20556;-79
2021/04/14 08:57:49;;;;;;;8.77;5.07;;;7.80;99.90;;;;;;6186756;23;20174;-81
2021/04/14 09:00:15;;;;;;;9.80;4.95;;;7.60;99.90;;;;;;6172621;23;20158;-81
2021/04/14 09:02:42;;;;;;;6.60;5.03;;;7.50;99.90;;;;;;6185018;23;20158;-81
2021/04/14 09:05:19;;;;;;;4.45;3.90;;;7.60;99.90;;;;;;6184820;23;20154;-82
2021/04/14 09:07:50;;;;;;;9.05;4.50;;;7.80;99.90;;;;;;6185227;23;20229;-77
2021/04/14 09:10:54;;;;;;;8.68;5.22;;;7.40;99.90;;;;;;6186108;23;20153;-79
2021/04/14 09:13:32;;;;;;;7.93;4.93;;;7.40;99.90;;;;;;6185065;23;20154;-79
2021/04/14 09:16:07;;;;;;;9.05;4.50;;;7.60;99.90;;;;;;6189348;23;20249;-79
2021/04/14 09:18:37;;;;;;;7.60;4.68;;;8.10;99.90;;;;;;6216529;23;20327;-79
2021/04/14 09:21:07;;;;;;;11.35;5.28;;;8.00;99.90;;;;;;6216333;23;20168;-79
2021/04/14 09:23:38;;;;;;;12.13;6.03;;;9.00;99.90;;;;;;6216746;23;20153;-79
2021/04/14 09:26:41;;;;;;;5.77;4.97;;;8.80;99.90;;;;;;6215931;23;20404;-80
2021/04/14 09:29:28;;;;;;;7.00;4.93;;;8.90;99.90;;;;;;6217028;23;20368;-80
2021/04/14 09:31:55;;;;;;;9.83;6.00;;;8.40;99.90;;;;;;6216618;23;20368;-85
2021/04/14 09:37:33;;;;;;;10.63;5.13;;;9.90;99.90;;;;;;6219801;22;20494;-80
2021/04/14 09:40:01;;;;;;;7.47;4.90;;;10.60;99.90;;;;;;6216350;23;20450;-79
2021/04/14 09:42:32;;;;;;;9.20;4.80;;;11.00;99.90;;;;;;6213450;23;20458;-81
2021/04/14 09:45:35;;;;;;;6.27;4.80;;;11.10;99.90;;;;;;6216539;23;20368;-81
2021/04/14 09:48:15;;;;;;;8.13;6.00;;;9.80;99.90;;;;;;6042635;23;20755;-81
2021/04/14 09:50:46;;;;;;;8.70;6.20;;;11.20;99.90;;;;;;6171574;23;20473;-77
2021/04/14 09:53:15;;;;;;;8.73;6.37;;;11.50;99.90;;;;;;6184712;23;20400;-84
2021/04/14 09:55:54;;;;;;;6.37;4.67;;;10.80;99.90;;;;;;6183859;23;20413;-83
2021/04/14 09:58:29;;;;;;;9.10;5.00;;;11.00;99.90;;;;;;6186263;23;20701;-78
2021/04/14 10:01:14;;;;;;;6.40;5.10;;;11.20;99.90;;;;;;6186083;23;20332;-80
2021/04/14 10:03:44;;;;;;;10.40;5.93;;;9.70;99.90;;;;;;6186218;23;20354;-80
2021/04/14 10:06:19;;;;;;;12.70;7.53;;;9.00;99.90;;;;;;6208938;23;20501;-86
2021/04/14 10:08:46;;;;;;;7.63;6.07;;;9.20;99.90;;;;;;6186124;23;20389;-84
2021/04/14 10:11:26;;;;;;;7.80;6.47;;;9.40;99.90;;;;;;6186148;23;20237;-83
2021/04/14 10:13:51;;;;;;;7.70;5.73;;;9.40;99.90;;;;;;6185477;23;20150;-83
2021/04/14 10:16:32;;;;;;;9.00;6.80;;;9.50;99.90;;;;;;6173507;23;20452;-82
2021/04/14 10:19:05;;;;;;;9.67;6.53;;;10.70;99.90;;;;;;6215935;23;20212;-80
2021/04/14 10:21:36;;;;;;;9.43;7.70;;;11.00;99.90;;;;;;6215960;23;20377;-82
2021/04/14 10:24:06;;;;;;;10.50;6.93;;;11.10;99.90;;;;;;6214401;23;20514;-81
2021/04/14 10:26:34;;;;;;;10.50;7.43;;;11.20;99.90;;;;;;6208854;23;20847;-85
2021/04/14 10:29:08;;;;;;;10.00;7.07;;;11.10;99.90;;;;;;6185833;23;20502;-86
2021/04/14 10:31:36;;;;;;;9.50;7.77;;;10.10;99.90;;;;;;6184694;23;20457;-85
2021/04/14 10:34:23;;;;;;;13.30;7.83;;;10.40;99.90;;;;;;6183792;23;20870;-85
2021/04/14 10:36:55;;;;;;;7.97;6.30;;;9.80;99.90;;;;;;6183358;23;20987;-82
2021/04/14 10:39:33;;;;;;;7.83;5.90;;;10.00;99.90;;;;;;6159690;23;20393;-87
2021/04/14 10:42:13;;;;;;;7.40;6.23;;;10.70;99.90;;;;;;6185730;23;20441;-81
2021/04/14 10:44:42;;;;;;;8.00;6.20;;;11.40;99.90;;;;;;6183812;23;20460;-81
2021/04/14 10:47:21;;;;;;;7.37;6.20;;;11.80;99.90;;;;;;6183948;23;20401;-83
2021/04/14 10:49:47;;;;;;;7.67;6.33;;;11.10;99.90;;;;;;6185370;23;20369;-85
2021/04/14 10:52:27;;;;;;;5.47;4.80;;;11.20;99.90;;;;;;6209028;23;20394;-85
2021/04/14 10:55:06;;;;;;;7.93;5.90;;;11.50;99.90;;;;;;6185305;23;20656;-85
2021/04/14 10:57:38;;;;;;;5.23;4.70;;;12.80;99.90;;;;;;6159468;23;20979;-84
2021/04/14 11:00:08;;;;;;;6.87;5.57;;;12.30;99.90;;;;;;6185877;23;20845;-84
2021/04/14 11:02:42;;;;;;;9.57;6.13;;;12.80;99.90;;;;;;6184412;23;20374;-88
2021/04/14 11:05:11;;;;;;;6.77;4.80;;;12.80;99.90;;;;;;6184660;23;20411;-80
2021/04/14 11:07:37;;;;;;;5.90;4.70;;;12.30;99.70;;;;;;6185729;23;20429;-81
2021/04/14 11:10:07;;;;;;;5.67;4.90;;;12.00;97.80;;;;;;6185654;23;20360;-84
2021/04/14 11:12:41;;;;;;;5.90;5.30;;;12.20;98.00;;;;;;6185553;23;20373;-84
2021/04/14 11:20:10;;;;;;;8.30;6.00;;;12.20;99.10;;;;;;6247661;22;20420;-82
2021/04/14 11:22:43;;;;;;;9.73;6.70;;;12.20;97.20;;;;;;6246034;23;20375;-83
2021/04/14 11:25:10;;;;;;;9.43;7.07;;;12.60;98.50;;;;;;6245603;22;20375;-84
2021/04/14 11:27:36;;;;;;;8.60;6.87;;;12.00;95.50;;;;;;6245815;23;20434;-82
2021/04/14 11:30:14;;;;;;;8.87;7.53;;;11.80;97.80;;;;;;6218877;23;20424;-82
2021/04/14 11:32:40;;;;;;;11.80;7.93;;;11.70;98.70;;;;;;6246204;23;20137;-85
2021/04/14 11:35:09;;;;;;;8.90;7.07;;;11.60;98.90;;;;;;6218676;22;20379;-84
2021/04/14 11:37:35;;;;;;;9.30;7.40;;;12.20;99.10;;;;;;6245633;23;20424;-79
2021/04/14 11:40:20;;;;;;;9.87;7.67;;;12.70;99.20;;;;;;6245874;23;20849;-82
2021/04/14 11:42:53;;;;;;;9.77;6.73;;;13.20;99.10;;;;;;6218921;23;20172;-83
2021/04/14 11:45:58;;;;;;;8.80;6.87;;;13.00;98.00;;;;;;6245153;22;20371;-82
2021/04/14 11:48:36;;;;;;;8.47;6.80;;;11.90;99.00;;;;;;6171063;23;20379;-82
2021/04/14 11:51:33;;;;;;;10.00;7.30;;;11.30;99.90;;;;;;6245216;23;20777;-82
2021/04/14 11:54:02;;;;;;;9.77;7.30;;;11.00;99.40;;;;;;6234060;23;20396;-82
2021/04/14 11:56:36;;;;;;;9.77;8.77;;;11.00;99.90;;;;;;6245227;22;20423;-81
2021/04/14 11:59:03;;;;;;;8.63;7.10;;;11.00;99.90;;;;;;6245788;23;20368;-82
2021/04/14 12:01:34;;;;;;;10.50;7.77;;;11.40;99.90;;;;;;6245936;23;20379;-83
2021/04/14 12:04:13;;;;;;;8.60;7.17;;;11.10;99.90;;;;;;6220331;23;20379;-79
2021/04/14 12:06:39;;;;;;;8.23;6.65;;;11.40;99.90;;;;;;6220705;23;20449;-83
2021/04/14 12:09:06;;;;;;;8.70;6.53;;;11.20;99.90;;;;;;6171184;23;20189;-81
2021/04/14 12:11:32;;;;;;;7.67;6.30;;;11.40;99.90;;;;;;6247450;23;20376;-86
2021/04/14 12:13:57;;;;;;;9.10;6.63;;;11.70;99.90;;;;;;6220898;23;20934;-80
2021/04/14 12:16:23;;;;;;;9.00;6.47;;;11.60;99.90;;;;;;6220334;23;20423;-78
2021/04/14 12:18:49;;;;;;;7.07;5.90;;;11.60;99.90;;;;;;6247649;23;20147;-83
2021/04/14 12:21:14;;;;;;;9.07;7.00;;;11.00;99.90;;;;;;6247092;23;20157;-79
2021/04/14 12:23:40;;;;;;;8.43;6.83;;;11.50;99.90;;;;;;6247399;23;20444;-77
2021/04/14 12:26:07;;;;;;;12.80;7.30;;;11.50;99.90;;;;;;6220061;23;20267;-79
2021/04/14 12:28:32;;;;;;;9.03;7.93;;;11.30;99.90;;;;;;6221104;23;20470;-80
2021/04/14 12:30:59;;;;;;;8.17;6.90;;;11.30;99.90;;;;;;6247437;23;20375;-80
2021/04/14 12:33:27;;;;;;;9.10;6.70;;;12.10;99.90;;;;;;6247496;23;20474;-80
2021/04/14 12:35:54;;;;;;;8.83;7.10;;;12.70;99.90;;;;;;6220109;23;20736;-82
2021/04/14 12:38:19;;;;;;;6.57;5.90;;;13.50;99.90;;;;;;6247370;23;20368;-84
2021/04/14 12:40:45;;;;;;;6.50;5.43;;;13.40;99.90;;;;;;6220501;23;20387;-80
2021/04/14 12:43:10;;;;;;;4.77;4.33;;;13.40;96.90;;;;;;6247458;23;20149;-83
2021/04/14 12:45:47;;;;;;;5.90;4.87;;;14.50;97.10;;;;;;6246979;22;20171;-81
2021/04/14 12:48:25;;;;;;;5.63;4.93;;;14.40;92.50;;;;;;6195320;23;20180;-83
2021/04/14 12:51:08;;;;;;;7.10;5.97;;;14.60;90.60;;;;;;6220365;23;20417;-80
2021/04/14 12:53:38;;;;;;;9.23;7.00;;;13.50;91.00;;;;;;6246755;23;20451;-81
2021/04/14 12:56:04;;;;;;;8.30;5.83;;;13.10;87.60;;;;;;6246832;22;20443;-82
2021/04/14 12:58:39;;;;;;;9.17;6.20;;;12.90;81.80;;;;;;6247116;23;20378;-80
2021/04/14 13:01:05;;;;;;;7.10;6.40;;;12.20;83.90;;;;;;6247211;23;20385;-79
2021/04/14 13:03:46;;;;;;;8.70;6.50;;;12.60;88.30;;;;;;6246950;23;20375;-79
2021/04/14 13:06:27;;;;;;;7.57;6.10;;;12.80;85.10;;;;;;6246555;22;20391;-78
2021/04/14 13:08:54;;;;;;;9.67;6.77;;;12.70;86.00;;;;;;6246938;23;20364;-81
2021/04/14 13:11:22;;;;;;;8.13;6.10;;;13.20;87.10;;;;;;6247072;23;20811;-81
2021/04/14 13:13:49;;;;;;;8.93;8.00;;;13.90;85.80;;;;;;6219888;23;20470;-81
2021/04/14 13:16:33;;;;;;;9.63;7.23;;;13.30;82.10;;;;;;6194160;23;20423;-79
2021/04/14 13:19:02;;;;;;;8.80;7.13;;;13.20;85.10;;;;;;6247256;23;20451;-84
2021/04/14 13:21:36;;;;;;;7.73;6.77;;;13.80;88.60;;;;;;6246966;23;20455;-79
2021/04/14 13:24:14;;;;;;;7.70;6.80;;;14.60;91.40;;;;;;6246861;23;20379;-78
2021/04/14 13:26:49;;;;;;;8.10;6.70;;;15.30;90.00;;;;;;6245839;22;20474;-80
2021/04/14 13:29:23;;;;;;;7.77;6.97;;;15.60;88.80;;;;;;6220803;23;20383;-80
2021/04/14 13:31:54;;;;;;;9.17;7.87;;;16.20;88.70;;;;;;6246909;23;20371;-79
2021/04/14 13:34:24;;;;;;;9.57;7.53;;;15.60;96.60;;;;;;6246866;23;20360;-79
2021/04/14 13:37:03;;;;;;;9.40;7.60;;;15.20;96.50;;;;;;6246378;22;20419;-79